Time;durP1;ratioP1;P1;durP2;ratioP2;P2;SDS_P1;SDS_P2;PMS_P1;PMS_P2;Temp;Humidity;BMP_temperature;BMP_pressure;BME280_temperature;BME280_humidity;BME280_pressure;Samples;Min_cycle;Max_cycle;Signal;HPM_P1;HPM_P2
2024/01/19 00:01:40;;;;;;;3.08;1.05;;;0.70;99.90;;;;;;4994891;28;20050;-74
2024/01/19 00:04:06;;;;;;;5.13;1.10;;;0.70;99.90;;;;;;4983627;28;20369;-74
2024/01/19 00:06:32;;;;;;;3.08;0.93;;;0.60;99.90;;;;;;4984302;28;21518;-74
2024/01/19 00:08:57;;;;;;;2.80;0.98;;;0.50;99.90;;;;;;4994518;28;20060;-74
2024/01/19 00:11:23;;;;;;;1.88;0.85;;;0.50;99.90;;;;;;4996214;28;20081;-74
2024/01/19 00:13:49;;;;;;;3.88;1.13;;;0.60;99.90;;;;;;5014320;28;20045;-74
2024/01/19 00:16:14;;;;;;;2.55;1.02;;;0.60;99.90;;;;;;4997606;28;20181;-74
2024/01/19 00:18:40;;;;;;;4.88;1.10;;;0.60;99.90;;;;;;4998909;28;20038;-74
2024/01/19 00:21:06;;;;;;;3.50;0.82;;;0.70;99.90;;;;;;4982007;28;20064;-74
2024/01/19 00:23:32;;;;;;;2.42;0.80;;;0.70;99.90;;;;;;4993666;28;20049;-74
2024/01/19 00:25:58;;;;;;;3.03;0.90;;;0.80;99.90;;;;;;4993788;28;20120;-74
2024/01/19 00:28:24;;;;;;;1.38;0.80;;;0.80;99.90;;;;;;4999531;28;20493;-74
2024/01/19 00:30:49;;;;;;;2.53;0.70;;;0.90;99.90;;;;;;4993954;28;20145;-74
2024/01/19 00:33:15;;;;;;;4.05;0.65;;;0.90;99.90;;;;;;4996543;28;20033;-74
2024/01/19 00:35:41;;;;;;;3.08;0.77;;;0.90;99.90;;;;;;4986133;28;20049;-74
2024/01/19 00:38:06;;;;;;;3.35;1.00;;;0.90;99.90;;;;;;4995958;28;20789;-74
2024/01/19 00:40:32;;;;;;;3.35;0.80;;;0.90;99.90;;;;;;5022941;28;20615;-74
2024/01/19 00:42:58;;;;;;;5.80;1.20;;;0.90;99.90;;;;;;4992876;28;20547;-74
2024/01/19 00:45:24;;;;;;;1.63;0.80;;;0.80;99.90;;;;;;5003607;28;20034;-74
2024/01/19 00:47:49;;;;;;;2.28;0.80;;;0.90;99.90;;;;;;4997785;28;20045;-74
2024/01/19 00:50:15;;;;;;;5.15;0.90;;;0.90;99.90;;;;;;4980367;28;21098;-74
2024/01/19 00:52:41;;;;;;;3.80;1.13;;;1.00;99.90;;;;;;4987979;28;20034;-74
2024/01/19 00:55:07;;;;;;;5.40;1.20;;;0.90;99.90;;;;;;4991360;28;20456;-75
2024/01/19 00:57:33;;;;;;;3.90;0.90;;;0.90;99.90;;;;;;4999283;28;20050;-74
2024/01/19 00:59:58;;;;;;;2.35;0.80;;;0.90;99.90;;;;;;5000063;28;21037;-74
2024/01/19 01:02:28;;;;;;;3.05;1.00;;;0.80;99.90;;;;;;4997933;28;20165;-74
2024/01/19 01:04:57;;;;;;;2.85;0.82;;;0.80;99.90;;;;;;4995455;28;20041;-74
2024/01/19 01:07:23;;;;;;;1.95;1.20;;;0.80;99.90;;;;;;4988069;28;20397;-74
2024/01/19 01:09:49;;;;;;;2.83;1.15;;;0.80;99.90;;;;;;4998956;28;20378;-74
2024/01/19 01:12:15;;;;;;;1.15;0.93;;;0.80;99.90;;;;;;4994192;28;20041;-75
2024/01/19 01:14:41;;;;;;;2.03;1.10;;;0.80;99.90;;;;;;4982810;28;20064;-74
2024/01/19 01:17:07;;;;;;;2.45;1.20;;;0.80;99.90;;;;;;4990963;28;20490;-75
2024/01/19 01:19:33;;;;;;;4.82;1.20;;;0.70;99.90;;;;;;4981691;28;20133;-75
2024/01/19 01:21:59;;;;;;;3.80;1.23;;;0.70;99.90;;;;;;4997001;28;20072;-75
2024/01/19 01:24:25;;;;;;;3.72;1.40;;;0.60;99.90;;;;;;4994274;28;20127;-74
2024/01/19 01:26:50;;;;;;;3.72;1.20;;;0.50;99.90;;;;;;4981232;28;20050;-74
2024/01/19 01:29:16;;;;;;;3.80;1.17;;;0.50;99.90;;;;;;4989526;28;20038;-75
2024/01/19 01:31:42;;;;;;;2.10;1.10;;;0.30;99.90;;;;;;4994369;28;20497;-75
2024/01/19 01:34:08;;;;;;;4.68;1.20;;;0.30;99.90;;;;;;4982466;28;20656;-75
2024/01/19 01:36:34;;;;;;;4.32;1.50;;;0.20;99.90;;;;;;4979530;28;20057;-74
2024/01/19 01:39:00;;;;;;;5.53;1.48;;;0.10;99.90;;;;;;5014940;28;20048;-75
2024/01/19 01:41:26;;;;;;;2.25;1.33;;;0.10;99.90;;;;;;4992789;28;20042;-74
2024/01/19 01:43:52;;;;;;;4.25;1.50;;;0.10;99.90;;;;;;5030919;28;20202;-75
2024/01/19 01:46:18;;;;;;;5.38;1.23;;;-0.10;99.90;;;;;;4993359;28;20069;-74
2024/01/19 01:48:43;;;;;;;3.90;1.15;;;0.00;99.90;;;;;;5012559;28;20236;-75
2024/01/19 01:51:10;;;;;;;6.55;1.50;;;-0.10;99.90;;;;;;4989437;28;20343;-74
2024/01/19 01:53:36;;;;;;;3.42;1.20;;;0.00;99.90;;;;;;4992517;28;20042;-72
2024/01/19 01:56:05;;;;;;;3.58;1.60;;;-0.10;99.90;;;;;;4981533;28;20038;-72
2024/01/19 01:58:31;;;;;;;4.63;1.65;;;-0.10;99.90;;;;;;4981921;28;20563;-72
2024/01/19 02:00:58;;;;;;;5.63;1.30;;;-0.30;99.90;;;;;;4994734;28;20417;-72
2024/01/19 02:03:24;;;;;;;7.07;1.50;;;-0.30;99.90;;;;;;4992943;28;20412;-72
2024/01/19 02:05:49;;;;;;;3.30;1.35;;;-0.30;99.90;;;;;;4984622;28;20041;-72
2024/01/19 02:08:15;;;;;;;7.38;1.67;;;-0.30;99.90;;;;;;4993324;28;20371;-72
2024/01/19 02:10:41;;;;;;;3.03;1.13;;;-0.30;99.90;;;;;;4982926;28;20041;-72
2024/01/19 02:13:07;;;;;;;8.25;1.60;;;-0.40;99.90;;;;;;4981285;28;20030;-72
2024/01/19 02:15:35;;;;;;;7.95;1.88;;;-0.40;99.90;;;;;;4986526;28;20041;-72
2024/01/19 02:18:01;;;;;;;8.60;1.73;;;-0.40;99.90;;;;;;4997240;28;20126;-72
2024/01/19 02:20:27;;;;;;;7.07;1.80;;;-0.30;99.90;;;;;;4981757;28;20133;-72
2024/01/19 02:22:54;;;;;;;5.72;1.83;;;-0.30;99.90;;;;;;4997123;28;20137;-72
2024/01/19 02:25:20;;;;;;;7.13;2.17;;;-0.20;99.90;;;;;;4980611;28;20073;-71
2024/01/19 02:27:46;;;;;;;8.27;1.75;;;-0.10;99.90;;;;;;4997781;28;20048;-72
2024/01/19 02:30:13;;;;;;;7.95;1.83;;;-0.10;99.90;;;;;;4981246;28;20080;-72
2024/01/19 02:32:38;;;;;;;5.82;1.70;;;0.00;99.90;;;;;;5010055;28;20046;-72
2024/01/19 02:35:05;;;;;;;5.03;1.88;;;0.00;99.90;;;;;;4995370;28;20461;-72
2024/01/19 02:37:31;;;;;;;6.88;1.83;;;0.20;99.90;;;;;;4987415;28;20054;-72
2024/01/19 02:39:56;;;;;;;5.13;1.70;;;0.20;99.90;;;;;;4993503;28;20536;-72
2024/01/19 02:42:22;;;;;;;4.72;1.85;;;0.20;99.90;;;;;;4996634;28;20045;-72
2024/01/19 02:44:48;;;;;;;4.95;1.70;;;0.20;99.90;;;;;;4980649;28;20065;-72
2024/01/19 02:47:14;;;;;;;9.18;1.55;;;0.30;99.90;;;;;;5023935;28;20774;-72
2024/01/19 02:49:39;;;;;;;6.20;1.50;;;0.30;99.90;;;;;;4995002;28;20052;-72
2024/01/19 02:52:05;;;;;;;5.55;1.70;;;0.30;99.90;;;;;;4980071;28;20049;-72
2024/01/19 02:54:31;;;;;;;3.72;1.70;;;0.20;99.90;;;;;;4980987;28;20034;-72
2024/01/19 02:56:57;;;;;;;5.70;1.73;;;0.30;99.90;;;;;;5022925;28;20408;-72
2024/01/19 02:59:22;;;;;;;5.35;1.70;;;0.20;99.90;;;;;;4997696;28;20056;-72
2024/01/19 03:01:48;;;;;;;7.22;1.63;;;0.10;99.90;;;;;;4998089;28;20044;-72
2024/01/19 03:04:14;;;;;;;6.78;1.75;;;0.00;99.90;;;;;;4998809;28;20057;-72
2024/01/19 03:06:40;;;;;;;6.85;1.67;;;0.00;99.90;;;;;;5028004;28;20048;-72
2024/01/19 03:09:06;;;;;;;9.25;1.88;;;-0.10;99.90;;;;;;4997411;28;20049;-72
2024/01/19 03:11:32;;;;;;;7.55;1.60;;;0.00;99.90;;;;;;4989446;28;20505;-73
2024/01/19 03:13:58;;;;;;;7.10;1.80;;;0.00;99.90;;;;;;4984926;28;20133;-72
2024/01/19 03:16:24;;;;;;;7.32;1.60;;;0.00;99.90;;;;;;5026608;28;20517;-72
2024/01/19 03:18:51;;;;;;;6.10;1.40;;;0.00;99.90;;;;;;5000194;28;20182;-72
2024/01/19 03:21:17;;;;;;;7.13;1.85;;;0.00;99.90;;;;;;4995843;28;20128;-72
2024/01/19 03:23:43;;;;;;;6.07;1.50;;;0.00;99.90;;;;;;4991776;28;20041;-72
2024/01/19 03:26:09;;;;;;;6.75;2.00;;;0.10;99.90;;;;;;4992869;28;20053;-72
2024/01/19 03:28:35;;;;;;;4.57;1.15;;;0.10;99.90;;;;;;4982079;28;20034;-72
2024/01/19 03:31:01;;;;;;;6.63;1.63;;;0.30;99.90;;;;;;4995999;28;20046;-72
2024/01/19 03:33:26;;;;;;;5.18;1.30;;;0.30;99.90;;;;;;4995783;28;20041;-72
2024/01/19 03:35:52;;;;;;;3.55;1.63;;;0.40;99.90;;;;;;5004204;28;20132;-72
2024/01/19 03:38:18;;;;;;;7.95;1.70;;;0.40;99.90;;;;;;5028094;28;20053;-72
2024/01/19 03:40:44;;;;;;;5.60;1.42;;;0.50;99.90;;;;;;5024132;28;20125;-72
2024/01/19 03:43:10;;;;;;;7.60;1.83;;;0.60;99.90;;;;;;4991407;28;20042;-72
2024/01/19 03:45:35;;;;;;;6.03;1.60;;;0.60;99.90;;;;;;4980857;28;20038;-72
2024/01/19 03:48:03;;;;;;;8.80;2.13;;;0.70;99.90;;;;;;5001210;28;20463;-73
2024/01/19 03:50:29;;;;;;;8.63;1.90;;;0.70;99.90;;;;;;4994020;28;20065;-72
2024/01/19 03:52:54;;;;;;;8.05;1.50;;;0.80;99.90;;;;;;4995095;28;20505;-72
2024/01/19 03:55:20;;;;;;;6.47;1.50;;;0.90;99.90;;;;;;5007553;28;20042;-72
2024/01/19 03:57:46;;;;;;;8.73;2.00;;;1.00;99.90;;;;;;5022925;28;20357;-73
2024/01/19 04:00:12;;;;;;;7.22;1.60;;;0.90;99.90;;;;;;4987515;28;20349;-72
2024/01/19 04:02:38;;;;;;;6.18;1.48;;;0.90;99.90;;;;;;4992400;28;20128;-72
2024/01/19 04:05:04;;;;;;;5.05;1.40;;;0.80;99.90;;;;;;5026996;28;20132;-72
2024/01/19 04:07:30;;;;;;;4.40;1.63;;;0.90;99.90;;;;;;4990992;28;20049;-72
2024/01/19 04:09:55;;;;;;;8.60;1.80;;;0.80;99.90;;;;;;4984353;28;20038;-72
2024/01/19 04:12:21;;;;;;;5.70;1.50;;;0.60;99.90;;;;;;4995589;28;20274;-73
2024/01/19 04:14:47;;;;;;;6.97;1.45;;;0.60;99.90;;;;;;5027516;28;20111;-72
2024/01/19 04:17:13;;;;;;;4.10;1.20;;;0.50;99.90;;;;;;4995465;28;20383;-72
2024/01/19 04:19:39;;;;;;;9.20;1.58;;;0.40;99.90;;;;;;4995814;28;20065;-72
2024/01/19 04:22:05;;;;;;;4.65;1.30;;;0.30;99.90;;;;;;4992773;28;20049;-73
2024/01/19 04:24:31;;;;;;;8.30;1.48;;;0.20;99.90;;;;;;5005191;28;20046;-73
2024/01/19 04:26:57;;;;;;;6.47;1.50;;;0.20;99.90;;;;;;4997237;28;20046;-72
2024/01/19 04:29:23;;;;;;;9.07;1.63;;;0.20;99.90;;;;;;5009144;28;20049;-72
2024/01/19 04:31:49;;;;;;;5.03;1.33;;;0.10;99.90;;;;;;4992823;28;20097;-72
2024/01/19 04:34:15;;;;;;;8.32;1.55;;;-0.10;99.90;;;;;;5024088;28;20053;-72
2024/01/19 04:36:41;;;;;;;8.65;1.83;;;-0.20;99.90;;;;;;4993386;28;20080;-73
2024/01/19 04:39:07;;;;;;;4.18;1.35;;;-0.20;99.90;;;;;;5028236;28;20124;-72
2024/01/19 04:41:33;;;;;;;8.18;2.10;;;-0.20;99.90;;;;;;4985961;28;20041;-72
2024/01/19 04:43:59;;;;;;;5.28;1.67;;;-0.20;99.90;;;;;;4993383;28;20497;-72
2024/01/19 04:46:24;;;;;;;7.82;1.90;;;-0.30;99.90;;;;;;4995000;28;20054;-72
2024/01/19 04:48:50;;;;;;;8.30;1.55;;;-0.50;99.90;;;;;;4997703;28;20133;-72
2024/01/19 04:51:16;;;;;;;6.15;1.63;;;-0.50;99.90;;;;;;5013601;28;20197;-72
2024/01/19 04:53:42;;;;;;;5.65;1.98;;;-0.40;99.90;;;;;;5019120;28;20560;-72
2024/01/19 04:56:08;;;;;;;7.05;1.63;;;-0.60;99.90;;;;;;5011453;28;20042;-72
2024/01/19 04:58:35;;;;;;;8.18;1.88;;;-0.50;99.90;;;;;;4993367;28;20068;-72
2024/01/19 05:01:02;;;;;;;6.50;1.65;;;-0.40;99.90;;;;;;4994313;28;20038;-72
2024/01/19 05:03:27;;;;;;;8.63;2.00;;;-0.60;99.90;;;;;;4995366;28;20121;-72
2024/01/19 05:05:53;;;;;;;8.60;2.65;;;-0.70;99.90;;;;;;4996121;28;20129;-72
2024/01/19 05:08:19;;;;;;;6.68;2.10;;;-0.60;99.90;;;;;;4992418;28;20046;-72
2024/01/19 05:10:45;;;;;;;6.28;2.20;;;-0.60;99.90;;;;;;4996649;28;20050;-72
2024/01/19 05:13:10;;;;;;;5.32;1.75;;;-0.70;99.90;;;;;;4991912;28;20504;-72
2024/01/19 05:15:37;;;;;;;8.43;2.03;;;-0.70;99.90;;;;;;5002485;28;20570;-72
2024/01/19 05:18:03;;;;;;;7.32;1.67;;;-0.70;99.90;;;;;;4980711;28;20363;-72
2024/01/19 05:20:29;;;;;;;9.60;2.30;;;-0.80;99.90;;;;;;4997336;28;20128;-72
2024/01/19 05:22:55;;;;;;;5.82;1.90;;;-0.80;99.90;;;;;;4993508;28;20056;-72
2024/01/19 05:25:21;;;;;;;6.90;1.83;;;-0.70;99.90;;;;;;5020608;28;20370;-72
2024/01/19 05:27:54;;;;;;;6.57;1.80;;;-0.90;99.90;;;;;;5016095;28;20038;-72
2024/01/19 05:30:29;;;;;;;6.22;2.28;;;-0.90;99.90;;;;;;4997822;28;20045;-72
2024/01/19 05:32:55;;;;;;;7.75;1.92;;;-0.80;99.90;;;;;;4995344;28;20125;-72
2024/01/19 05:35:21;;;;;;;8.77;1.80;;;-0.80;99.90;;;;;;5002312;28;20045;-72
2024/01/19 05:37:47;;;;;;;12.30;2.97;;;-0.90;99.90;;;;;;5013049;28;20688;-72
2024/01/19 05:40:12;;;;;;;7.53;1.77;;;-0.90;99.90;;;;;;5008034;28;20050;-72
2024/01/19 05:42:38;;;;;;;5.78;1.95;;;-0.70;99.90;;;;;;5011848;28;20030;-72
2024/01/19 05:45:04;;;;;;;9.15;1.95;;;-0.70;99.90;;;;;;4988400;28;20092;-72
2024/01/19 05:47:30;;;;;;;10.77;1.90;;;-0.60;99.90;;;;;;4981060;28;20128;-72
2024/01/19 05:49:56;;;;;;;7.95;1.75;;;-0.60;99.90;;;;;;4989068;28;20042;-72
2024/01/19 05:52:22;;;;;;;14.23;2.25;;;-0.60;99.90;;;;;;4997490;28;20491;-72
2024/01/19 05:54:48;;;;;;;9.75;1.75;;;-0.80;99.90;;;;;;4979921;28;20137;-72
2024/01/19 05:57:14;;;;;;;8.55;2.05;;;-0.80;99.90;;;;;;4997451;28;20046;-72
2024/01/19 05:59:40;;;;;;;9.48;2.20;;;-0.90;99.90;;;;;;4983547;28;20409;-72
2024/01/19 06:02:06;;;;;;;7.93;1.98;;;-1.10;99.90;;;;;;4987980;28;20037;-72
2024/01/19 06:04:33;;;;;;;9.02;2.47;;;-1.10;99.90;;;;;;4984931;28;20038;-72
2024/01/19 06:07:02;;;;;;;11.02;2.45;;;-1.10;99.90;;;;;;4997464;28;20049;-72
2024/01/19 06:09:29;;;;;;;7.88;2.35;;;-1.10;99.90;;;;;;4994266;28;20501;-72
2024/01/19 06:11:54;;;;;;;15.45;2.78;;;-1.10;99.90;;;;;;4992971;28;20354;-72
2024/01/19 06:14:20;;;;;;;9.57;2.72;;;-1.00;99.90;;;;;;4993297;28;20133;-72
2024/01/19 06:16:46;;;;;;;14.18;3.08;;;-0.90;99.90;;;;;;4984587;28;20084;-72
2024/01/19 06:19:12;;;;;;;13.35;2.72;;;-1.00;99.90;;;;;;4981547;28;20042;-72
2024/01/19 06:21:38;;;;;;;5.30;2.50;;;-0.90;99.90;;;;;;4991281;28;20045;-72
2024/01/19 06:24:04;;;;;;;11.50;2.00;;;-0.80;99.90;;;;;;4979503;28;20038;-72
2024/01/19 06:26:32;;;;;;;12.35;2.72;;;-0.50;99.90;;;;;;4993836;28;20519;-72
2024/01/19 06:29:01;;;;;;;12.98;2.20;;;-0.20;99.90;;;;;;4993054;28;20057;-72
2024/01/19 06:31:27;;;;;;;9.93;2.03;;;-0.20;99.90;;;;;;4993425;28;20479;-72
2024/01/19 06:33:52;;;;;;;12.63;2.15;;;-0.10;99.90;;;;;;4992497;28;20217;-72
2024/01/19 06:36:18;;;;;;;11.40;2.33;;;-0.20;99.90;;;;;;4995751;28;20599;-72
2024/01/19 06:38:44;;;;;;;15.77;2.92;;;-0.10;99.90;;;;;;4979409;28;20069;-73
2024/01/19 06:41:10;;;;;;;8.15;2.22;;;-0.10;99.90;;;;;;5026658;28;20042;-72
2024/01/19 06:43:36;;;;;;;7.45;1.88;;;-0.20;99.90;;;;;;4984781;28;20073;-72
2024/01/19 06:46:01;;;;;;;12.65;2.33;;;-0.30;99.90;;;;;;4998008;28;20105;-72
2024/01/19 06:48:27;;;;;;;9.48;2.00;;;-0.20;99.90;;;;;;4997445;28;20504;-72
2024/01/19 06:50:53;;;;;;;15.73;2.42;;;-0.30;99.90;;;;;;4980444;28;20045;-72
2024/01/19 06:53:18;;;;;;;8.48;1.98;;;-0.40;99.90;;;;;;4978901;28;20042;-73
2024/01/19 06:55:44;;;;;;;8.57;1.90;;;-0.40;99.90;;;;;;4984841;28;20038;-72
2024/01/19 06:58:10;;;;;;;9.38;1.98;;;-0.40;99.90;;;;;;4985682;28;20057;-72
2024/01/19 07:00:36;;;;;;;11.02;2.45;;;-0.50;99.90;;;;;;5001134;28;20352;-72
2024/01/19 07:03:01;;;;;;;10.68;1.98;;;-0.40;99.90;;;;;;5000540;28;20505;-73
2024/01/19 07:05:27;;;;;;;9.13;1.92;;;-0.40;99.90;;;;;;5000121;28;20046;-72
2024/01/19 07:07:53;;;;;;;6.50;1.77;;;-0.40;99.90;;;;;;4993878;28;20065;-72
2024/01/19 07:10:19;;;;;;;10.07;1.92;;;-0.60;99.90;;;;;;5024120;28;20490;-72
2024/01/19 07:12:45;;;;;;;7.63;2.10;;;-0.50;99.90;;;;;;5002228;28;20532;-72
2024/01/19 07:15:11;;;;;;;12.95;2.30;;;-0.60;99.90;;;;;;4994870;28;20085;-72
2024/01/19 07:17:36;;;;;;;14.02;2.78;;;-0.60;99.90;;;;;;4996763;28;20065;-72
2024/01/19 07:20:05;;;;;;;11.23;2.38;;;-0.70;99.90;;;;;;5000058;28;20556;-72
2024/01/19 07:22:32;;;;;;;14.23;2.90;;;-0.60;99.90;;;;;;5007963;28;20045;-72
2024/01/19 07:24:58;;;;;;;9.90;3.13;;;-0.80;99.90;;;;;;4999338;28;20072;-72
2024/01/19 07:27:24;;;;;;;12.98;3.08;;;-0.70;99.90;;;;;;4989340;28;20437;-72
2024/01/19 07:29:50;;;;;;;12.18;3.00;;;-0.90;99.90;;;;;;4987789;28;20505;-73
2024/01/19 07:32:19;;;;;;;12.82;2.75;;;-0.80;99.90;;;;;;4981587;28;20045;-72
2024/01/19 07:34:48;;;;;;;11.73;2.97;;;-0.90;99.90;;;;;;5023253;28;20642;-72
2024/01/19 07:37:14;;;;;;;12.68;2.88;;;-0.80;99.90;;;;;;4981163;28;20069;-73
2024/01/19 07:39:39;;;;;;;12.48;2.60;;;-0.70;99.90;;;;;;4983648;28;20076;-72
2024/01/19 07:42:05;;;;;;;9.57;2.65;;;-0.70;99.90;;;;;;4990133;28;20045;-72
2024/01/19 07:44:31;;;;;;;13.50;3.25;;;-0.70;99.90;;;;;;4995276;28;20069;-72
2024/01/19 07:46:57;;;;;;;9.20;2.80;;;-0.60;99.90;;;;;;4992384;28;20461;-73
2024/01/19 07:49:22;;;;;;;11.93;3.03;;;-0.60;99.90;;;;;;5009587;28;20275;-72
2024/01/19 07:51:49;;;;;;;12.23;3.33;;;-0.60;99.90;;;;;;4994528;28;20050;-72
2024/01/19 07:54:16;;;;;;;13.35;2.50;;;-0.60;99.90;;;;;;4983557;28;20528;-72
2024/01/19 07:56:42;;;;;;;8.90;2.75;;;-0.50;99.90;;;;;;4994804;28;20137;-72
2024/01/19 07:59:07;;;;;;;15.98;2.88;;;-0.40;99.90;;;;;;5022108;28;20129;-72
2024/01/19 08:01:34;;;;;;;13.82;2.40;;;-0.40;99.90;;;;;;4979737;28;20053;-72
2024/01/19 08:04:00;;;;;;;13.18;2.60;;;-0.30;99.90;;;;;;5009790;28;20125;-72
2024/01/19 08:06:26;;;;;;;10.70;2.75;;;-0.30;99.90;;;;;;4992079;28;20132;-72
2024/01/19 08:08:51;;;;;;;9.70;2.67;;;-0.20;99.90;;;;;;4989892;28;20104;-72
2024/01/19 08:11:17;;;;;;;9.38;2.63;;;-0.20;99.90;;;;;;4988897;28;20073;-72
2024/01/19 08:13:43;;;;;;;9.57;2.35;;;-0.20;99.90;;;;;;4997424;28;20037;-72
2024/01/19 08:16:09;;;;;;;9.68;2.55;;;-0.30;99.90;;;;;;5002588;28;20052;-73
2024/01/19 08:18:34;;;;;;;13.70;2.63;;;-0.20;99.90;;;;;;4977097;28;20285;-72
2024/01/19 08:21:03;;;;;;;10.90;2.38;;;-0.10;99.90;;;;;;4984894;28;20521;-72
2024/01/19 08:23:30;;;;;;;8.75;2.83;;;-0.20;99.90;;;;;;4984451;28;20049;-72
2024/01/19 08:25:56;;;;;;;10.95;3.03;;;-0.10;99.90;;;;;;4986456;28;20077;-72
2024/01/19 08:28:22;;;;;;;11.65;2.85;;;-0.20;99.90;;;;;;4980171;28;20104;-72
2024/01/19 08:30:48;;;;;;;6.82;2.15;;;-0.20;99.90;;;;;;4976241;28;20117;-72
2024/01/19 08:33:14;;;;;;;9.93;2.38;;;-0.10;99.90;;;;;;4987721;28;20037;-72
2024/01/19 08:35:40;;;;;;;7.93;2.03;;;0.00;99.90;;;;;;4995424;28;20135;-72
2024/01/19 08:38:06;;;;;;;9.80;2.33;;;0.00;99.90;;;;;;4985162;28;20046;-72
2024/01/19 08:40:31;;;;;;;8.27;2.17;;;0.10;99.90;;;;;;4991914;28;20085;-72
2024/01/19 08:42:57;;;;;;;8.75;2.30;;;0.10;99.90;;;;;;4977734;28;20317;-72
2024/01/19 08:45:23;;;;;;;11.15;3.03;;;0.10;99.90;;;;;;5021114;28;20041;-73
2024/01/19 08:47:50;;;;;;;11.15;2.58;;;0.10;99.90;;;;;;5006885;28;20050;-72
2024/01/19 08:50:16;;;;;;;11.13;2.58;;;0.00;99.90;;;;;;5025858;28;20566;-72
2024/01/19 08:52:42;;;;;;;12.60;2.97;;;0.10;99.90;;;;;;4995949;28;20505;-72
2024/01/19 08:55:08;;;;;;;10.38;2.95;;;0.10;99.90;;;;;;4991064;28;20038;-73
2024/01/19 08:57:34;;;;;;;12.15;2.65;;;0.10;99.90;;;;;;5007467;28;20452;-72
2024/01/19 09:00:01;;;;;;;12.52;2.58;;;0.00;99.90;;;;;;4981358;28;20033;-72
2024/01/19 09:02:27;;;;;;;11.07;2.45;;;0.00;99.90;;;;;;5019592;28;20506;-72
2024/01/19 09:04:53;;;;;;;10.35;2.30;;;0.00;99.90;;;;;;4996067;28;20125;-72
2024/01/19 09:07:19;;;;;;;12.02;2.25;;;0.10;99.90;;;;;;4982033;28;20041;-72
2024/01/19 09:09:44;;;;;;;12.73;2.33;;;0.10;99.90;;;;;;4991073;28;20053;-72
2024/01/19 09:12:10;;;;;;;14.05;2.75;;;0.20;99.90;;;;;;4989575;28;20046;-72
2024/01/19 09:14:36;;;;;;;9.02;2.50;;;0.20;99.90;;;;;;4994489;28;20500;-72
2024/01/19 09:17:02;;;;;;;7.97;2.63;;;0.20;99.90;;;;;;4994628;28;20046;-72
2024/01/19 09:19:28;;;;;;;9.73;2.30;;;0.40;99.90;;;;;;4983368;28;20076;-72
2024/01/19 09:21:53;;;;;;;12.30;2.38;;;0.30;99.90;;;;;;5018412;28;20558;-72
2024/01/19 09:24:20;;;;;;;8.60;2.50;;;0.40;99.90;;;;;;5025095;28;20045;-72
2024/01/19 09:26:45;;;;;;;10.55;2.33;;;0.40;99.90;;;;;;5006022;28;20042;-72
2024/01/19 09:29:11;;;;;;;9.43;2.60;;;0.40;99.90;;;;;;4983698;28;20045;-73
2024/01/19 09:31:47;;;;;;;8.07;2.08;;;0.50;99.90;;;;;;4993659;28;20060;-72
2024/01/19 09:34:14;;;;;;;8.95;2.47;;;0.70;99.90;;;;;;4983425;28;20111;-72
2024/01/19 09:36:40;;;;;;;7.95;2.20;;;0.70;99.90;;;;;;4979595;28;20101;-72
2024/01/19 09:39:07;;;;;;;12.02;2.40;;;0.70;99.90;;;;;;4995439;28;20123;-72
2024/01/19 09:41:47;;;;;;;12.75;2.70;;;0.70;99.90;;;;;;4995706;28;20038;-72
2024/01/19 09:44:17;;;;;;;9.55;2.80;;;0.80;99.90;;;;;;4996524;28;20088;-72
2024/01/19 09:46:52;;;;;;;10.63;2.70;;;0.80;99.90;;;;;;4988964;28;20041;-72
2024/01/19 09:49:23;;;;;;;10.90;2.45;;;0.80;99.90;;;;;;4981214;28;20037;-72
2024/01/19 09:52:17;;;;;;;11.20;2.50;;;0.80;99.90;;;;;;4989714;28;20540;-72
2024/01/19 09:54:42;;;;;;;9.20;2.58;;;0.90;99.90;;;;;;4996508;28;20059;-72
2024/01/19 09:57:08;;;;;;;10.55;2.25;;;0.90;99.90;;;;;;4982282;28;20410;-72
2024/01/19 09:59:34;;;;;;;10.80;2.88;;;1.00;99.90;;;;;;4985077;28;20488;-72
2024/01/19 10:02:00;;;;;;;9.43;2.50;;;1.00;99.90;;;;;;4988923;28;20053;-72
2024/01/19 10:04:27;;;;;;;7.28;2.42;;;1.10;99.90;;;;;;4999678;28;20038;-72
2024/01/19 10:06:54;;;;;;;13.00;2.50;;;1.20;99.90;;;;;;5024666;28;20046;-72
2024/01/19 10:09:21;;;;;;;9.40;2.42;;;1.20;99.90;;;;;;5004418;28;20560;-72
2024/01/19 10:11:54;;;;;;;10.63;2.50;;;1.20;99.90;;;;;;4993204;28;20493;-73
2024/01/19 10:14:21;;;;;;;8.32;2.50;;;1.30;99.90;;;;;;4985650;28;20171;-72
2024/01/19 10:16:51;;;;;;;9.52;2.40;;;1.30;99.90;;;;;;5004147;28;20469;-72
2024/01/19 10:19:20;;;;;;;8.75;2.47;;;1.40;99.90;;;;;;4980869;28;20042;-73
2024/01/19 10:21:46;;;;;;;7.85;2.67;;;1.50;99.90;;;;;;5018941;28;20053;-73
2024/01/19 10:24:19;;;;;;;8.68;2.28;;;1.60;99.90;;;;;;4991857;28;20057;-73
2024/01/19 10:26:55;;;;;;;10.90;2.60;;;1.70;99.90;;;;;;4993970;28;20612;-73
2024/01/19 10:29:21;;;;;;;6.20;2.35;;;1.80;99.90;;;;;;4994913;28;20073;-73
2024/01/19 10:31:49;;;;;;;9.27;2.45;;;1.80;99.90;;;;;;5020489;28;20444;-73
2024/01/19 10:34:28;;;;;;;9.30;2.35;;;1.80;99.90;;;;;;4993635;28;20045;-73
2024/01/19 10:36:54;;;;;;;10.18;2.40;;;2.00;99.90;;;;;;5006474;28;20062;-73
2024/01/19 10:39:26;;;;;;;8.70;2.40;;;2.00;99.90;;;;;;5006163;28;20481;-73
2024/01/19 10:42:03;;;;;;;10.57;3.05;;;2.00;99.90;;;;;;5027376;28;20050;-73
2024/01/19 10:44:29;;;;;;;10.13;2.80;;;2.10;99.90;;;;;;4995753;28;20053;-73
2024/01/19 10:46:56;;;;;;;8.35;2.40;;;2.10;99.90;;;;;;4988546;28;20041;-73
2024/01/19 10:49:22;;;;;;;10.40;2.67;;;2.20;99.90;;;;;;5018454;28;20076;-73
2024/01/19 10:51:49;;;;;;;11.68;2.50;;;2.20;99.90;;;;;;4992689;28;20087;-73
2024/01/19 10:54:24;;;;;;;12.13;2.40;;;2.20;99.90;;;;;;5016114;28;20054;-73
2024/01/19 10:57:03;;;;;;;9.57;2.30;;;2.20;99.90;;;;;;4984291;28;20185;-73
2024/01/19 10:59:29;;;;;;;11.10;2.55;;;2.30;99.90;;;;;;4992484;28;20056;-73
2024/01/19 11:02:01;;;;;;;7.22;2.05;;;2.40;99.90;;;;;;4995908;28;20077;-73
2024/01/19 11:04:27;;;;;;;8.43;2.80;;;2.40;99.90;;;;;;4981870;28;20044;-73
2024/01/19 11:06:53;;;;;;;13.52;3.00;;;2.40;99.90;;;;;;5004904;28;20038;-74
2024/01/19 11:09:19;;;;;;;8.13;2.60;;;2.50;99.90;;;;;;4975524;28;20101;-73
2024/01/19 11:11:54;;;;;;;11.27;2.60;;;2.60;99.90;;;;;;5022227;28;20047;-73
2024/01/19 11:14:24;;;;;;;9.75;2.40;;;2.60;99.90;;;;;;4991790;28;20042;-74
2024/01/19 11:16:52;;;;;;;7.63;2.45;;;2.70;99.90;;;;;;4989122;28;20053;-74
2024/01/19 11:19:20;;;;;;;10.35;2.72;;;2.80;99.90;;;;;;4990556;28;20049;-74
2024/01/19 11:21:46;;;;;;;4.75;2.20;;;2.90;99.90;;;;;;4988441;28;20055;-74
2024/01/19 11:24:14;;;;;;;11.10;2.50;;;3.00;99.90;;;;;;4996414;28;20053;-74
2024/01/19 11:26:58;;;;;;;7.65;2.28;;;3.00;99.90;;;;;;4983591;28;20060;-74
2024/01/19 11:29:42;;;;;;;7.88;2.15;;;3.10;99.90;;;;;;4989911;28;20050;-74
2024/01/19 11:32:09;;;;;;;6.60;2.40;;;3.20;99.90;;;;;;5027493;28;20438;-74
2024/01/19 11:34:45;;;;;;;12.82;2.47;;;3.20;99.90;;;;;;5011799;28;20049;-73
2024/01/19 11:37:39;;;;;;;11.65;2.47;;;3.20;99.90;;;;;;4994068;28;20290;-74
2024/01/19 11:40:06;;;;;;;10.73;2.40;;;3.30;99.90;;;;;;4995889;28;20144;-73
2024/01/19 11:42:39;;;;;;;12.25;2.47;;;3.30;99.90;;;;;;4984041;28;20495;-73
2024/01/19 11:45:05;;;;;;;12.80;2.85;;;3.40;99.90;;;;;;4991333;28;20050;-74
2024/01/19 11:47:39;;;;;;;6.85;2.30;;;3.50;99.90;;;;;;5032655;28;20456;-74
2024/01/19 11:50:13;;;;;;;11.02;2.55;;;3.60;99.90;;;;;;4979985;28;20045;-73
2024/01/19 11:52:41;;;;;;;11.53;2.50;;;3.60;99.90;;;;;;4990950;28;20380;-73
2024/01/19 11:55:33;;;;;;;9.75;2.33;;;3.70;99.90;;;;;;4999992;28;20290;-73
2024/01/19 11:58:29;;;;;;;11.32;2.58;;;3.70;99.90;;;;;;4991723;28;20191;-74
2024/01/19 12:00:56;;;;;;;8.85;2.28;;;3.80;99.90;;;;;;4996210;28;20264;-73
2024/01/19 12:03:22;;;;;;;8.43;2.30;;;3.90;99.90;;;;;;4996625;28;20045;-73
2024/01/19 12:05:50;;;;;;;10.70;2.40;;;3.90;99.90;;;;;;5026919;28;20038;-73
2024/01/19 12:08:15;;;;;;;11.48;2.05;;;4.00;99.90;;;;;;4987169;28;20050;-73
2024/01/19 12:10:43;;;;;;;9.80;2.03;;;4.00;99.90;;;;;;4991391;28;20048;-73
2024/01/19 12:13:08;;;;;;;14.35;2.80;;;4.10;99.90;;;;;;4999728;28;20042;-73
2024/01/19 12:15:34;;;;;;;6.72;2.15;;;4.10;99.90;;;;;;4994967;28;20678;-73
2024/01/19 12:18:03;;;;;;;7.43;2.00;;;4.20;99.90;;;;;;5007777;28;20053;-73
2024/01/19 12:20:28;;;;;;;7.57;1.63;;;4.20;99.90;;;;;;4980496;28;20053;-73
2024/01/19 12:22:57;;;;;;;9.75;1.88;;;4.20;99.90;;;;;;4992248;28;20042;-73
2024/01/19 12:25:24;;;;;;;4.95;1.85;;;4.30;99.90;;;;;;4991721;28;20208;-73
2024/01/19 12:28:01;;;;;;;11.35;2.45;;;4.40;99.90;;;;;;4998117;28;20038;-73
2024/01/19 12:30:32;;;;;;;10.77;2.10;;;4.40;99.90;;;;;;5005612;28;20064;-73
2024/01/19 12:32:57;;;;;;;11.93;2.38;;;4.50;99.90;;;;;;4982980;28;20057;-73
2024/01/19 12:35:23;;;;;;;8.27;2.13;;;4.60;99.90;;;;;;5000576;28;20045;-73
2024/01/19 12:37:49;;;;;;;5.28;1.35;;;4.70;99.90;;;;;;4981041;28;20057;-73
2024/01/19 12:40:20;;;;;;;11.07;2.33;;;4.70;99.90;;;;;;4982481;28;20468;-73
2024/01/19 12:42:47;;;;;;;7.50;1.95;;;4.70;99.90;;;;;;5032084;28;20050;-73
2024/01/19 12:45:19;;;;;;;8.20;1.50;;;4.70;99.90;;;;;;4990168;28;20049;-73
2024/01/19 12:47:46;;;;;;;7.10;1.65;;;4.80;99.90;;;;;;4993485;28;20107;-73
2024/01/19 12:50:13;;;;;;;6.07;1.92;;;4.80;99.90;;;;;;4993140;28;20505;-72